createdAt,value
2022-12-11T00:00:06.411Z,11.85
2022-12-11T00:02:33.032Z,10.93
2022-12-11T00:04:59.664Z,11.75
2022-12-11T00:07:26.308Z,11.82
2022-12-11T00:09:52.917Z,9.95
2022-12-11T00:12:19.546Z,11.95
2022-12-11T00:14:46.127Z,10.82
2022-12-11T00:17:12.753Z,11.60
2022-12-11T00:19:39.377Z,11.70
2022-12-11T00:22:06.042Z,11.32
2022-12-11T00:24:32.712Z,11.10
2022-12-11T00:26:59.501Z,12.27
2022-12-11T00:29:26.107Z,12.10
2022-12-11T00:31:52.735Z,11.60
2022-12-11T00:34:19.341Z,11.02
2022-12-11T00:36:45.986Z,10.85
2022-12-11T00:39:12.778Z,11.02
2022-12-11T00:41:39.369Z,12.02
2022-12-11T00:44:06.140Z,11.48
2022-12-11T00:46:32.832Z,11.27
2022-12-11T00:48:59.451Z,11.57
2022-12-11T00:51:26.249Z,11.45
2022-12-11T00:53:52.895Z,11.15
2022-12-11T00:56:22.568Z,12.60
2022-12-11T00:58:49.538Z,12.18
2022-12-11T01:01:22.492Z,12.82
2022-12-11T01:03:49.396Z,13.10
2022-12-11T01:06:18.852Z,13.05
2022-12-11T01:08:46.257Z,12.52
2022-12-11T01:11:15.569Z,12.13
2022-12-11T01:13:43.295Z,13.63
2022-12-11T01:16:14.052Z,12.85
2022-12-11T01:18:41.120Z,13.52
2022-12-11T01:21:13.445Z,13.60
2022-12-11T01:23:40.633Z,12.55
2022-12-11T01:26:15.016Z,12.98
2022-12-11T01:28:42.349Z,14.15
2022-12-11T01:31:13.844Z,12.35
2022-12-11T01:33:41.421Z,14.68
2022-12-11T01:36:19.738Z,14.35
2022-12-11T01:38:48.056Z,13.32
2022-12-11T01:41:15.394Z,14.20
2022-12-11T01:44:03.615Z,14.15
2022-12-11T01:46:32.448Z,13.20
2022-12-11T01:49:00.909Z,15.10
2022-12-11T01:51:31.438Z,14.07
2022-12-11T01:54:03.667Z,15.00
2022-12-11T01:56:32.966Z,15.68
2022-12-11T01:59:07.137Z,13.60
2022-12-11T02:01:39.775Z,14.13
2022-12-11T02:04:08.698Z,14.10
2022-12-11T02:06:44.814Z,13.95
2022-12-11T02:09:14.890Z,13.07
2022-12-11T02:11:53.307Z,14.30
2022-12-11T02:14:34.981Z,14.60
2022-12-11T02:17:10.268Z,14.60
2022-12-11T02:20:10.713Z,14.82
2022-12-11T02:22:37.477Z,14.30
2022-12-11T02:25:19.074Z,14.30
2022-12-11T02:27:56.734Z,14.98
2022-12-11T02:30:24.838Z,13.18
2022-12-11T02:32:55.772Z,14.93
2022-12-11T02:35:28.374Z,13.95
2022-12-11T02:37:59.685Z,14.35
2022-12-11T02:40:30.143Z,12.63
2022-12-11T02:43:00.110Z,13.20
2022-12-11T02:45:29.014Z,12.77
2022-12-11T02:47:58.888Z,13.40
2022-12-11T02:50:27.067Z,13.10
2022-12-11T02:52:56.940Z,12.35
2022-12-11T02:55:27.264Z,12.52
2022-12-11T02:58:03.893Z,12.85
2022-12-11T03:00:30.723Z,12.82
2022-12-11T03:02:58.041Z,12.63
2022-12-11T03:05:24.811Z,12.23
2022-12-11T03:07:51.486Z,11.90
2022-12-11T03:10:19.921Z,10.52
2022-12-11T03:12:53.377Z,9.65
2022-12-11T03:15:24.044Z,11.38
2022-12-11T03:17:59.682Z,10.30
2022-12-11T03:20:38.948Z,10.75
2022-12-11T03:23:28.546Z,11.75
2022-12-11T03:26:10.413Z,12.02
2022-12-11T03:28:45.638Z,11.68
2022-12-11T03:31:37.781Z,11.25
2022-12-11T03:34:13.598Z,11.40
2022-12-11T03:36:40.962Z,9.63
2022-12-11T03:39:12.685Z,9.13
2022-12-11T03:41:41.160Z,10.85
2022-12-11T03:44:09.194Z,9.85
2022-12-11T03:46:39.502Z,9.82
2022-12-11T03:49:09.532Z,8.65
2022-12-11T03:51:36.817Z,8.95
2022-12-11T03:54:03.691Z,8.73
2022-12-11T03:56:34.293Z,10.48
2022-12-11T03:59:00.862Z,10.88
2022-12-11T04:01:27.647Z,10.82
2022-12-11T04:03:54.332Z,10.05
2022-12-11T04:06:20.981Z,9.70
2022-12-11T04:08:47.598Z,9.82
2022-12-11T04:11:32.713Z,11.05
2022-12-11T04:14:25.214Z,9.68
2022-12-11T04:16:51.894Z,8.90
2022-12-11T04:19:37.958Z,9.40
2022-12-11T04:22:23.387Z,8.77
2022-12-11T04:24:50.379Z,10.60
2022-12-11T04:27:38.501Z,10.10
2022-12-11T04:30:09.545Z,9.45
2022-12-11T04:32:36.154Z,9.43
2022-12-11T04:35:02.984Z,9.55
2022-12-11T04:37:30.121Z,10.05
2022-12-11T04:39:56.757Z,10.07
2022-12-11T04:42:23.410Z,10.82
2022-12-11T04:44:50.002Z,9.60
2022-12-11T04:47:16.954Z,9.93
2022-12-11T04:49:43.565Z,8.65
2022-12-11T04:52:10.202Z,9.65
2022-12-11T04:54:36.792Z,9.30
2022-12-11T04:57:03.439Z,9.30
2022-12-11T04:59:31.467Z,9.95
2022-12-11T05:01:58.151Z,9.00
2022-12-11T05:04:24.766Z,9.38
2022-12-11T05:06:51.786Z,9.63
2022-12-11T05:09:18.379Z,9.50
2022-12-11T05:11:44.938Z,8.88
2022-12-11T05:14:11.619Z,8.90
2022-12-11T05:16:38.328Z,9.15
2022-12-11T05:19:04.969Z,8.98
2022-12-11T05:21:35.056Z,8.10
2022-12-11T05:24:02.683Z,10.23
2022-12-11T05:26:29.426Z,8.68
2022-12-11T05:28:56.049Z,9.50
2022-12-11T05:31:25.637Z,9.77
2022-12-11T05:33:53.505Z,8.70
2022-12-11T05:36:26.121Z,9.20
2022-12-11T05:38:53.177Z,9.77
2022-12-11T05:41:24.578Z,9.98
2022-12-11T05:43:52.067Z,8.57
2022-12-11T05:46:26.578Z,8.68
2022-12-11T05:48:56.522Z,8.68
2022-12-11T05:51:23.827Z,8.57
2022-12-11T05:53:51.769Z,8.55
2022-12-11T05:56:26.320Z,9.60
2022-12-11T05:58:54.161Z,8.43
2022-12-11T06:01:25.110Z,8.25
2022-12-11T06:03:52.108Z,9.00
2022-12-11T06:06:18.788Z,9.98
2022-12-11T06:08:45.420Z,8.93
2022-12-11T06:11:18.371Z,9.02
2022-12-11T06:13:48.350Z,8.10
2022-12-11T06:16:15.367Z,8.63
2022-12-11T06:18:44.866Z,10.13
2022-12-11T06:21:24.813Z,8.50
2022-12-11T06:23:54.109Z,8.43
2022-12-11T06:26:21.518Z,8.48
2022-12-11T06:28:48.546Z,7.13
2022-12-11T06:31:15.792Z,7.30
2022-12-11T06:33:43.343Z,6.95
2022-12-11T06:36:17.776Z,6.97
2022-12-11T06:38:45.085Z,7.40
2022-12-11T06:41:12.750Z,7.38
2022-12-11T06:43:40.573Z,7.60
2022-12-11T06:46:10.367Z,7.65
2022-12-11T06:48:37.431Z,8.02
2022-12-11T06:51:12.622Z,8.23
2022-12-11T06:53:39.472Z,7.47
2022-12-11T06:56:12.372Z,7.85
2022-12-11T06:58:40.250Z,7.10
2022-12-11T07:01:24.805Z,7.30
2022-12-11T07:03:55.925Z,6.68
2022-12-11T07:06:23.143Z,7.28
2022-12-11T07:08:50.019Z,7.05
2022-12-11T07:11:17.861Z,7.00
2022-12-11T07:13:44.857Z,6.45
2022-12-11T07:16:13.822Z,5.88
2022-12-11T07:18:43.470Z,6.85
2022-12-11T07:21:13.219Z,6.57
2022-12-11T07:23:40.590Z,6.00
2022-12-11T07:26:10.877Z,6.40
2022-12-11T07:28:37.638Z,6.07
2022-12-11T07:31:14.871Z,6.47
2022-12-11T07:33:43.004Z,7.00
2022-12-11T07:36:11.728Z,6.60
2022-12-11T07:38:38.830Z,6.50
2022-12-11T07:41:08.343Z,7.07
2022-12-11T07:43:36.078Z,6.97
2022-12-11T07:46:08.549Z,6.50
2022-12-11T07:48:36.694Z,9.57
2022-12-11T07:51:15.140Z,10.30
2022-12-11T07:53:43.031Z,9.43
2022-12-11T07:56:09.649Z,8.38
2022-12-11T07:58:36.976Z,8.40
2022-12-11T08:01:03.610Z,7.68
2022-12-11T08:03:30.265Z,7.95
2022-12-11T08:05:56.910Z,7.75
2022-12-11T08:08:23.566Z,7.45
2022-12-11T08:10:50.182Z,8.50
2022-12-11T08:13:16.753Z,8.23
2022-12-11T08:15:43.432Z,7.60
2022-12-11T08:18:10.385Z,8.55
2022-12-11T08:20:39.354Z,8.95
2022-12-11T08:23:06.047Z,9.20
2022-12-11T08:25:32.927Z,8.68
2022-12-11T08:27:59.503Z,8.40
2022-12-11T08:30:26.136Z,7.22
2022-12-11T08:32:52.808Z,7.15
2022-12-11T08:35:19.423Z,7.50
2022-12-11T08:37:46.017Z,7.72
2022-12-11T08:40:12.700Z,7.00
2022-12-11T08:42:39.317Z,7.32
2022-12-11T08:45:06.682Z,7.00
2022-12-11T08:47:33.261Z,7.45
2022-12-11T08:49:59.853Z,7.10
2022-12-11T08:52:26.459Z,7.50
2022-12-11T08:54:53.080Z,7.43
2022-12-11T08:57:19.638Z,6.78
2022-12-11T08:59:46.261Z,7.18
2022-12-11T09:02:13.502Z,7.32
2022-12-11T09:04:40.340Z,7.70
2022-12-11T09:07:06.920Z,7.68
2022-12-11T09:09:33.544Z,8.32
2022-12-11T09:12:01.532Z,8.15
2022-12-11T09:14:28.164Z,8.02
2022-12-11T09:16:54.729Z,7.47
2022-12-11T09:19:21.333Z,6.45
2022-12-11T09:21:48.317Z,7.95
2022-12-11T09:24:15.201Z,7.28
2022-12-11T09:26:42.018Z,7.32
2022-12-11T09:29:09.202Z,7.63
2022-12-11T09:31:36.909Z,7.60
2022-12-11T09:34:11.461Z,8.07
2022-12-11T09:36:42.565Z,7.80
2022-12-11T09:39:11.601Z,7.50
2022-12-11T09:41:49.740Z,6.97
2022-12-11T09:44:31.479Z,8.05
2022-12-11T09:46:59.093Z,8.57
2022-12-11T09:49:37.702Z,8.57
2022-12-11T09:52:23.388Z,8.65
2022-12-11T09:54:56.517Z,11.23
2022-12-11T10:00:14.129Z,10.32
2022-12-11T10:03:01.386Z,9.13
2022-12-11T10:05:45.325Z,8.85
2022-12-11T10:08:20.931Z,9.75
2022-12-11T10:11:16.312Z,10.65
2022-12-11T10:14:00.192Z,8.60
2022-12-11T10:16:46.157Z,8.80
2022-12-11T10:19:27.656Z,8.60
2022-12-11T10:21:55.733Z,7.47
2022-12-11T10:27:31.384Z,8.60
2022-12-11T10:30:08.358Z,9.40
2022-12-11T10:33:02.450Z,8.55
2022-12-11T10:35:32.105Z,8.95
2022-12-11T10:38:27.573Z,9.93
2022-12-11T10:41:00.868Z,11.07
2022-12-11T10:43:39.731Z,11.07
2022-12-11T10:46:14.125Z,9.23
2022-12-11T10:48:55.452Z,9.98
2022-12-11T10:51:34.277Z,10.35
2022-12-11T10:54:29.330Z,9.20
2022-12-11T10:56:56.746Z,9.57
2022-12-11T10:59:30.530Z,9.35
2022-12-11T11:01:58.101Z,9.05
2022-12-11T11:04:31.566Z,9.70
2022-12-11T11:07:11.123Z,8.68
2022-12-11T11:09:37.792Z,8.57
2022-12-11T11:12:08.081Z,9.00
2022-12-11T11:14:34.900Z,8.75
2022-12-11T11:17:01.624Z,9.15
2022-12-11T11:19:33.834Z,8.95
2022-12-11T11:22:19.698Z,8.43
2022-12-11T11:24:54.217Z,8.95
2022-12-11T11:27:41.344Z,9.52
2022-12-11T11:30:37.860Z,7.93
2022-12-11T11:33:12.547Z,8.90
2022-12-11T11:35:45.535Z,8.70
2022-12-11T11:38:21.996Z,9.90
2022-12-11T11:41:04.848Z,7.88
2022-12-11T11:43:38.714Z,7.13
2022-12-11T11:46:23.318Z,7.88
2022-12-11T11:49:07.902Z,6.78
2022-12-11T11:51:43.084Z,7.78
2022-12-11T11:54:17.095Z,7.90
2022-12-11T11:56:44.297Z,8.02
2022-12-11T11:59:22.723Z,8.55
2022-12-11T12:01:51.211Z,7.97
2022-12-11T12:04:17.871Z,8.63
2022-12-11T12:07:06.515Z,9.45
2022-12-11T12:10:00.674Z,9.60
2022-12-11T12:12:51.469Z,9.38
2022-12-11T12:15:28.881Z,7.70
2022-12-11T12:17:59.929Z,9.27
2022-12-11T12:20:38.865Z,8.65
2022-12-11T12:23:17.383Z,8.68
2022-12-11T12:26:00.381Z,8.18
2022-12-11T12:28:29.674Z,8.20
2022-12-11T12:31:17.423Z,8.38
2022-12-11T12:34:12.046Z,8.93
2022-12-11T12:36:57.412Z,9.82
2022-12-11T12:39:35.738Z,10.70
2022-12-11T12:42:16.125Z,8.50
2022-12-11T12:45:10.789Z,8.30
2022-12-11T12:47:38.983Z,8.77
2022-12-11T12:50:12.515Z,8.38
2022-12-11T12:52:40.794Z,8.25
2022-12-11T12:55:18.058Z,8.10
2022-12-11T12:57:54.617Z,7.72
2022-12-11T13:00:32.498Z,8.52
2022-12-11T13:03:03.359Z,7.65
2022-12-11T13:05:33.376Z,6.82
2022-12-11T13:08:03.411Z,8.52
2022-12-11T13:10:33.773Z,7.53
2022-12-11T13:13:02.436Z,7.38
2022-12-11T13:15:34.159Z,8.88
2022-12-11T13:18:03.948Z,7.68
2022-12-11T13:20:34.492Z,7.68
2022-12-11T13:23:07.140Z,7.53
2022-12-11T13:25:51.069Z,7.45
2022-12-11T13:28:28.842Z,8.63
2022-12-11T13:31:15.401Z,7.63
2022-12-11T13:33:47.058Z,6.95
2022-12-11T13:36:24.520Z,7.57
2022-12-11T13:39:04.841Z,8.40
2022-12-11T13:41:35.387Z,8.85
2022-12-11T13:44:03.100Z,7.63
2022-12-11T13:46:35.621Z,7.78
2022-12-11T13:49:06.922Z,8.02
2022-12-11T13:51:38.069Z,8.63
2022-12-11T13:54:17.966Z,8.30
2022-12-11T13:57:04.024Z,8.25
2022-12-11T13:59:32.235Z,8.15
2022-12-11T14:02:04.059Z,8.52
2022-12-11T14:04:34.316Z,8.70
2022-12-11T14:07:01.947Z,7.88
2022-12-11T14:09:29.543Z,9.23
2022-12-11T14:11:57.406Z,9.05
2022-12-11T14:14:33.340Z,9.43
2022-12-11T14:17:00.324Z,8.32
2022-12-11T14:19:27.784Z,7.15
2022-12-11T14:22:03.205Z,7.30
2022-12-11T14:24:31.230Z,8.02
2022-12-11T14:26:58.632Z,6.93
2022-12-11T14:29:33.003Z,7.20
2022-12-11T14:32:04.828Z,7.15
2022-12-11T14:34:36.969Z,6.32
2022-12-11T14:37:06.423Z,7.03
2022-12-11T14:39:52.757Z,6.43
2022-12-11T14:42:27.293Z,7.72
2022-12-11T14:45:03.145Z,7.55
2022-12-11T14:47:37.617Z,6.90
2022-12-11T14:50:17.389Z,6.65
2022-12-11T14:52:48.187Z,6.80
2022-12-11T14:55:21.653Z,6.57
2022-12-11T14:57:51.385Z,5.82
2022-12-11T15:00:22.299Z,6.53
2022-12-11T15:03:02.088Z,5.57
2022-12-11T15:05:30.026Z,6.53
2022-12-11T15:07:58.275Z,6.78
2022-12-11T15:10:31.377Z,6.18
2022-12-11T15:15:33.876Z,6.75
2022-12-11T15:18:05.191Z,7.03
2022-12-11T15:20:31.871Z,6.30
2022-12-11T15:23:01.794Z,7.82
2022-12-11T15:25:29.794Z,7.40
2022-12-11T15:27:59.835Z,6.18
2022-12-11T15:30:33.190Z,6.93
2022-12-11T15:33:19.738Z,7.40
2022-12-11T15:36:04.444Z,8.07
2022-12-11T15:38:40.783Z,7.55
2022-12-11T15:41:14.555Z,7.38
2022-12-11T15:43:41.477Z,8.18
2022-12-11T15:46:08.190Z,7.85
2022-12-11T15:48:34.833Z,8.32
2022-12-11T15:51:01.429Z,7.38
2022-12-11T15:53:28.037Z,8.02
2022-12-11T15:55:54.933Z,7.35
2022-12-11T15:58:24.281Z,8.73
2022-12-11T16:00:51.164Z,8.13
2022-12-11T16:03:20.220Z,8.30
2022-12-11T16:05:47.222Z,8.00
2022-12-11T16:08:16.231Z,8.27
2022-12-11T16:10:43.752Z,8.30
2022-12-11T16:13:11.453Z,7.63
2022-12-11T16:15:41.004Z,7.30
2022-12-11T16:18:11.080Z,7.65
2022-12-11T16:20:39.977Z,7.57
2022-12-11T16:23:08.302Z,8.43
2022-12-11T16:25:40.954Z,8.45
2022-12-11T16:28:08.724Z,9.38
2022-12-11T16:30:36.783Z,12.43
2022-12-11T16:33:10.224Z,11.82
2022-12-11T16:35:38.897Z,9.25
2022-12-11T16:38:05.532Z,9.63
2022-12-11T16:40:32.109Z,8.27
2022-12-11T16:42:58.721Z,9.20
2022-12-11T16:45:27.011Z,8.95
2022-12-11T16:47:53.829Z,10.45
2022-12-11T16:50:20.560Z,8.93
2022-12-11T16:52:47.409Z,8.18
2022-12-11T16:55:15.089Z,9.80
2022-12-11T16:57:42.047Z,9.65
2022-12-11T17:00:12.219Z,8.80
2022-12-11T17:02:38.939Z,8.85
2022-12-11T17:05:05.917Z,9.48
2022-12-11T17:07:33.227Z,8.75
2022-12-11T17:10:01.836Z,8.95
2022-12-11T17:12:28.784Z,9.00
2022-12-11T17:14:56.398Z,8.73
2022-12-11T17:17:22.994Z,9.20
2022-12-11T17:19:49.668Z,7.40
2022-12-11T17:22:16.419Z,8.30
2022-12-11T17:24:43.047Z,11.00
2022-12-11T17:27:09.826Z,8.57
2022-12-11T17:29:36.432Z,10.13
2022-12-11T17:32:03.364Z,9.23
2022-12-11T17:34:36.122Z,9.20
2022-12-11T17:37:05.323Z,8.68
2022-12-11T17:39:31.994Z,9.10
2022-12-11T17:41:58.556Z,9.68
2022-12-11T17:44:26.759Z,10.35
2022-12-11T17:46:53.742Z,8.40
2022-12-11T17:49:20.460Z,7.82
2022-12-11T17:51:48.045Z,8.20
2022-12-11T17:54:15.036Z,7.53
2022-12-11T17:56:41.798Z,7.95
2022-12-11T17:59:08.466Z,8.38
2022-12-11T18:01:35.236Z,8.60
2022-12-11T18:04:02.423Z,8.27
2022-12-11T18:06:29.959Z,9.68
2022-12-11T18:08:57.605Z,9.38
2022-12-11T18:11:24.409Z,9.50
2022-12-11T18:13:52.822Z,9.85
2022-12-11T18:16:29.467Z,7.40
2022-12-11T18:18:56.617Z,7.25
2022-12-11T18:21:29.049Z,7.63
2022-12-11T18:23:56.475Z,7.20
2022-12-11T18:26:23.466Z,7.40
2022-12-11T18:28:51.059Z,8.45
2022-12-11T18:31:18.759Z,8.32
2022-12-11T18:33:46.612Z,7.90
2022-12-11T18:36:15.364Z,8.98
2022-12-11T18:38:42.314Z,8.98
2022-12-11T18:41:10.797Z,8.98
2022-12-11T18:43:37.845Z,8.25
2022-12-11T18:46:14.259Z,8.65
2022-12-11T18:48:42.377Z,8.30
2022-12-11T18:51:12.493Z,7.78
2022-12-11T18:53:39.945Z,7.57
2022-12-11T18:56:13.254Z,7.13
2022-12-11T18:58:40.307Z,6.68
2022-12-11T19:01:33.146Z,8.70
2022-12-11T19:04:04.530Z,13.05
2022-12-11T19:06:35.628Z,7.20
2022-12-11T19:09:03.826Z,9.45
2022-12-11T19:11:31.797Z,8.43
2022-12-11T19:13:59.038Z,8.32
2022-12-11T19:16:33.598Z,8.40
2022-12-11T19:19:07.068Z,8.65
2022-12-11T19:21:35.477Z,8.68
2022-12-11T19:24:02.181Z,11.70
2022-12-11T19:26:28.928Z,11.50
2022-12-11T19:28:59.983Z,9.65
2022-12-11T19:31:29.029Z,8.57
2022-12-11T19:33:56.723Z,8.70
2022-12-11T19:36:26.015Z,8.77
2022-12-11T19:38:59.300Z,8.13
2022-12-11T19:41:28.880Z,8.85
2022-12-11T19:43:57.473Z,7.35
2022-12-11T19:46:25.005Z,7.50
2022-12-11T19:48:54.189Z,7.65
2022-12-11T19:51:23.913Z,7.20
2022-12-11T19:53:51.350Z,7.82
2022-12-11T19:56:18.819Z,6.05
2022-12-11T19:58:45.664Z,6.40
2022-12-11T20:01:25.845Z,6.20
2022-12-11T20:03:53.572Z,5.90
2022-12-11T20:06:20.260Z,5.65
2022-12-11T20:08:47.333Z,5.20
2022-12-11T20:11:18.354Z,5.40
2022-12-11T20:13:47.014Z,5.70
2022-12-11T20:16:14.373Z,6.10
2022-12-11T20:18:41.737Z,5.65
2022-12-11T20:21:14.375Z,5.32
2022-12-11T20:23:41.424Z,4.82
2022-12-11T20:26:19.865Z,5.55
2022-12-11T20:28:50.197Z,6.60
2022-12-11T20:31:20.818Z,5.53
2022-12-11T20:33:49.255Z,5.60
2022-12-11T20:36:18.318Z,5.93
2022-12-11T20:38:45.265Z,5.78
2022-12-11T20:41:15.010Z,5.55
2022-12-11T20:43:42.293Z,5.95
2022-12-11T20:46:11.834Z,6.20
2022-12-11T20:48:39.901Z,5.65
2022-12-11T20:51:08.247Z,5.88
2022-12-11T20:53:36.082Z,6.35
2022-12-11T20:56:08.355Z,7.15
2022-12-11T20:58:34.910Z,6.40
2022-12-11T21:01:01.906Z,6.63
2022-12-11T21:03:28.580Z,6.82
2022-12-11T21:05:55.282Z,6.55
2022-12-11T21:08:21.938Z,7.05
2022-12-11T21:10:48.666Z,6.75
2022-12-11T21:13:16.742Z,6.60
2022-12-11T21:15:43.513Z,6.90
2022-12-11T21:18:10.194Z,7.25
2022-12-11T21:20:36.747Z,7.00
2022-12-11T21:23:03.936Z,7.18
2022-12-11T21:25:30.573Z,7.22
2022-12-11T21:27:57.149Z,7.97
2022-12-11T21:30:23.761Z,6.43
2022-12-11T21:32:50.351Z,6.80
2022-12-11T21:35:17.062Z,7.80
2022-12-11T21:37:43.733Z,8.50
2022-12-11T21:40:10.721Z,8.13
2022-12-11T21:42:37.297Z,8.00
2022-12-11T21:47:50.973Z,8.18
2022-12-11T21:50:18.133Z,7.45
2022-12-11T21:52:44.743Z,7.63
2022-12-11T21:55:12.785Z,9.15
2022-12-11T21:57:39.656Z,9.80
2022-12-11T22:00:06.785Z,7.72
2022-12-11T22:02:37.553Z,7.63
2022-12-11T22:05:07.692Z,6.50
2022-12-11T22:07:34.287Z,6.90
2022-12-11T22:10:02.204Z,6.85
2022-12-11T22:12:29.577Z,6.95
2022-12-11T22:14:56.437Z,6.65
2022-12-11T22:17:23.217Z,6.10
2022-12-11T22:19:52.035Z,6.35
2022-12-11T22:22:19.322Z,6.13
2022-12-11T22:24:46.095Z,6.53
2022-12-11T22:27:12.693Z,6.00
2022-12-11T22:29:39.314Z,6.88
2022-12-11T22:32:05.913Z,7.32
2022-12-11T22:34:32.500Z,7.55
2022-12-11T22:36:59.064Z,6.53
2022-12-11T22:39:25.684Z,6.28
2022-12-11T22:41:52.326Z,6.35
2022-12-11T22:44:21.390Z,5.78
2022-12-11T22:46:50.436Z,6.03
2022-12-11T22:49:18.772Z,5.85
2022-12-11T22:51:45.470Z,6.63
2022-12-11T22:54:12.254Z,7.32
2022-12-11T22:56:38.988Z,5.63
2022-12-11T22:59:07.524Z,5.57
2022-12-11T23:01:34.463Z,4.80
2022-12-11T23:04:01.066Z,5.25
2022-12-11T23:06:27.691Z,5.35
2022-12-11T23:08:58.730Z,5.15
2022-12-11T23:11:29.418Z,4.88
2022-12-11T23:13:56.703Z,5.32
2022-12-11T23:16:25.845Z,5.47
2022-12-11T23:18:53.697Z,5.35
2022-12-11T23:21:21.782Z,5.28
2022-12-11T23:23:48.850Z,5.30
2022-12-11T23:26:15.990Z,5.47
2022-12-11T23:28:42.565Z,6.18
2022-12-11T23:31:09.322Z,5.85
2022-12-11T23:33:36.792Z,5.65
2022-12-11T23:36:04.498Z,5.20
2022-12-11T23:38:31.129Z,5.40
2022-12-11T23:41:00.246Z,5.40
2022-12-11T23:43:26.949Z,5.45
2022-12-11T23:45:54.136Z,5.28
2022-12-11T23:48:21.225Z,5.63
2022-12-11T23:50:48.209Z,5.90
2022-12-11T23:53:15.279Z,5.30
2022-12-11T23:55:44.838Z,6.90
2022-12-11T23:58:11.987Z,7.57
